createdAt,value
2018-09-15T00:04:31.326Z,13.4
2018-09-15T00:09:33.672Z,13.4
2018-09-15T00:14:35.964Z,13.4
2018-09-15T00:19:38.312Z,13.4
2018-09-15T00:24:40.502Z,13.4
2018-09-15T00:29:42.879Z,13.4
2018-09-15T00:34:45.207Z,13.4
2018-09-15T00:39:47.520Z,13.4
2018-09-15T00:44:49.766Z,13.4
2018-09-15T00:49:52.002Z,13.4
2018-09-15T00:54:54.320Z,13.3
2018-09-15T00:59:56.619Z,13.3
2018-09-15T01:04:58.978Z,13.3
2018-09-15T01:10:01.101Z,13.3
2018-09-15T01:15:03.423Z,13.3
2018-09-15T01:20:05.794Z,13.2
2018-09-15T01:25:08.020Z,13.2
2018-09-15T01:30:10.256Z,13.2
2018-09-15T01:35:12.714Z,13.1
2018-09-15T01:40:14.919Z,13.1
2018-09-15T01:45:17.168Z,13
2018-09-15T01:50:19.469Z,12.9
2018-09-15T01:55:21.842Z,12.8
2018-09-15T02:00:24.183Z,12.7
2018-09-15T02:05:26.438Z,12.6
2018-09-15T02:10:28.740Z,12.6
2018-09-15T02:15:31.039Z,12.5
2018-09-15T02:20:33.295Z,12.4
2018-09-15T02:25:37.877Z,12.4
2018-09-15T02:30:37.813Z,12.3
2018-09-15T02:35:40.132Z,12.2
2018-09-15T02:40:42.471Z,12.2
2018-09-15T02:45:44.729Z,12.1
2018-09-15T02:50:47.095Z,12
2018-09-15T02:55:49.480Z,12
2018-09-15T03:00:51.598Z,12
2018-09-15T03:05:53.904Z,12
2018-09-15T03:10:56.413Z,12.1
2018-09-15T03:15:58.528Z,12
2018-09-15T03:21:00.855Z,12
2018-09-15T03:26:03.098Z,11.9
2018-09-15T03:31:05.431Z,11.9
2018-09-15T03:36:07.659Z,11.9
2018-09-15T03:41:10.150Z,11.8
2018-09-15T03:46:12.273Z,11.8
2018-09-15T03:51:14.615Z,11.7
2018-09-15T03:56:16.890Z,11.7
2018-09-15T04:01:19.200Z,11.6
2018-09-15T04:06:22.864Z,11.5
2018-09-15T04:11:23.761Z,11.5
2018-09-15T04:16:26.067Z,11.5
2018-09-15T04:21:28.343Z,11.5
2018-09-15T04:26:30.565Z,11.4
2018-09-15T04:31:32.991Z,11.4
2018-09-15T04:36:35.191Z,11.4
2018-09-15T04:41:37.508Z,11.4
2018-09-15T04:46:39.809Z,11.3
2018-09-15T04:51:42.103Z,11.3
2018-09-15T04:56:44.481Z,11.3
2018-09-15T05:01:46.789Z,11.3
2018-09-15T05:06:49.037Z,11.2
2018-09-15T05:11:51.297Z,11.2
2018-09-15T05:16:53.555Z,11.2
2018-09-15T05:21:55.911Z,11.2
2018-09-15T05:26:58.105Z,11.1
2018-09-15T05:32:00.481Z,11.1
2018-09-15T05:37:02.905Z,11.1
2018-09-15T05:42:05.068Z,11.1
2018-09-15T05:47:07.237Z,11.1
2018-09-15T05:52:09.667Z,11.1
2018-09-15T05:57:11.908Z,11.1
2018-09-15T06:02:14.268Z,11.2
2018-09-15T06:07:16.613Z,11.2
2018-09-15T06:12:18.802Z,11.3
2018-09-15T06:17:21.061Z,11.3
2018-09-15T06:22:23.361Z,11.4
2018-09-15T06:27:25.713Z,11.5
2018-09-15T06:32:27.980Z,11.6
2018-09-15T06:37:30.304Z,11.8
2018-09-15T06:42:32.561Z,11.9
2018-09-15T06:47:34.855Z,12.1
2018-09-15T06:52:37.180Z,12.3
2018-09-15T06:57:39.431Z,12.5
2018-09-15T07:02:41.830Z,12.8
2018-09-15T07:07:44.075Z,13.2
2018-09-15T07:12:46.359Z,13.5
2018-09-15T07:17:48.591Z,13.8
2018-09-15T07:22:50.946Z,14.2
2018-09-15T07:27:53.278Z,14.5
2018-09-15T07:32:55.557Z,14.9
2018-09-15T07:37:57.830Z,15.3
2018-09-15T07:43:00.059Z,15.4
2018-09-15T07:48:02.449Z,15.3
2018-09-15T07:53:04.768Z,15.3
2018-09-15T07:58:06.899Z,15.2
2018-09-15T08:03:09.363Z,15.4
2018-09-15T08:08:11.559Z,15.7
2018-09-15T08:13:13.872Z,15.8
2018-09-15T08:18:16.129Z,16
2018-09-15T08:23:18.463Z,16.299999
2018-09-15T08:28:20.735Z,16.700001
2018-09-15T08:33:23.134Z,16.799999
2018-09-15T08:38:25.468Z,16.9
2018-09-15T08:43:27.611Z,17.1
2018-09-15T08:48:31.727Z,17.5
2018-09-15T08:53:32.218Z,17.9
2018-09-15T08:58:34.550Z,18.299999
2018-09-15T09:03:36.947Z,18.6
2018-09-15T09:08:39.057Z,18.6
2018-09-15T09:13:41.520Z,18.9
2018-09-15T09:18:43.661Z,18.700001
2018-09-15T09:23:45.924Z,18.799999
2018-09-15T09:28:48.214Z,19.1
2018-09-15T09:33:50.548Z,19.200001
2018-09-15T09:38:52.806Z,19.5
2018-09-15T09:43:55.255Z,19.9
2018-09-15T09:48:57.595Z,20.1
2018-09-15T09:53:59.790Z,20
2018-09-15T09:59:02.084Z,20
2018-09-15T10:04:04.340Z,19.799999
2018-09-15T10:09:06.707Z,19.6
2018-09-15T10:14:08.993Z,19.5
2018-09-15T10:19:11.147Z,19.6
2018-09-15T10:24:13.532Z,19.6
2018-09-15T10:29:15.809Z,19.700001
2018-09-15T10:34:18.159Z,19.700001
2018-09-15T10:39:20.483Z,19.700001
2018-09-15T10:44:22.684Z,19.9
2018-09-15T10:49:24.992Z,19.9
2018-09-15T10:54:27.253Z,20
2018-09-15T10:59:29.512Z,20.200001
2018-09-15T11:04:31.856Z,20.6
2018-09-15T11:09:34.109Z,20.299999
2018-09-15T11:14:36.660Z,19.9
2018-09-15T11:19:38.724Z,19.6
2018-09-15T11:24:41.085Z,19.4
2018-09-15T11:29:43.386Z,19.299999
2018-09-15T11:34:45.642Z,19.299999
2018-09-15T11:39:47.932Z,20.4
2018-09-15T11:44:50.189Z,21.299999
2018-09-15T11:49:52.467Z,21
2018-09-15T11:54:55.050Z,20.5
2018-09-15T11:59:57.152Z,20.200001
2018-09-15T12:04:59.449Z,20.1
2018-09-15T12:10:03.225Z,20
2018-09-15T12:15:05.202Z,19.799999
2018-09-15T12:20:06.251Z,19.6
2018-09-15T12:25:08.506Z,19.6
2018-09-15T12:30:10.930Z,19.6
2018-09-15T12:35:13.182Z,19.700001
2018-09-15T12:40:15.428Z,19.700001
2018-09-15T12:45:17.824Z,19.6
2018-09-15T12:50:20.106Z,19.4
2018-09-15T12:55:22.358Z,19.200001
2018-09-15T13:00:24.694Z,19
2018-09-15T13:05:26.908Z,18.9
2018-09-15T13:10:29.250Z,18.799999
2018-09-15T13:15:31.709Z,18.799999
2018-09-15T13:20:33.881Z,18.9
2018-09-15T13:25:36.098Z,19
2018-09-15T13:30:38.459Z,19.299999
2018-09-15T13:35:40.770Z,20.1
2018-09-15T13:40:42.934Z,21.700001
2018-09-15T13:45:46.550Z,23
2018-09-15T13:50:47.536Z,23.5
2018-09-15T13:55:49.884Z,23.799999
2018-09-15T14:00:52.236Z,24.4
2018-09-15T14:05:54.534Z,24.6
2018-09-15T14:10:56.829Z,24.6
2018-09-15T14:15:59.055Z,24.700001
2018-09-15T14:21:01.323Z,24.700001
2018-09-15T14:26:03.601Z,24.700001
2018-09-15T14:31:05.941Z,24.200001
2018-09-15T14:36:08.235Z,23.799999
2018-09-15T14:41:10.654Z,24.1
2018-09-15T14:46:12.791Z,24.299999
2018-09-15T14:51:15.199Z,24.4
2018-09-15T14:56:17.522Z,24.4
2018-09-15T15:01:19.676Z,23.9
2018-09-15T15:06:22.128Z,23.9
2018-09-15T15:11:24.568Z,23.700001
2018-09-15T15:16:26.620Z,23.200001
2018-09-15T15:21:30.083Z,23.6
2018-09-15T15:26:31.373Z,23.700001
2018-09-15T15:31:33.604Z,23.700001
2018-09-15T15:36:35.824Z,23.299999
2018-09-15T15:41:38.058Z,23.200001
2018-09-15T15:46:40.383Z,23.299999
2018-09-15T15:51:42.577Z,23.1
2018-09-15T15:56:44.992Z,22.799999
2018-09-15T16:01:47.312Z,22.4
2018-09-15T16:06:49.514Z,21.9
2018-09-15T16:11:51.802Z,21.5
2018-09-15T16:16:54.049Z,20.9
2018-09-15T16:21:56.379Z,20.5
2018-09-15T16:26:58.743Z,20.200001
2018-09-15T16:32:01.132Z,20
2018-09-15T16:37:03.333Z,19.799999
2018-09-15T16:42:05.498Z,19.700001
2018-09-15T16:47:07.980Z,19.6
2018-09-15T16:52:10.135Z,19.4
2018-09-15T16:57:12.475Z,19.200001
2018-09-15T17:02:14.922Z,19
2018-09-15T17:07:17.091Z,18.700001
2018-09-15T17:12:20.609Z,18.5
2018-09-15T17:17:21.637Z,18.200001
2018-09-15T17:22:24.022Z,18
2018-09-15T17:27:26.350Z,17.700001
2018-09-15T17:32:28.498Z,17.6
2018-09-15T17:37:30.886Z,17.4
2018-09-15T17:42:33.235Z,17.200001
2018-09-15T17:47:35.530Z,17
2018-09-15T17:52:37.707Z,16.799999
2018-09-15T17:57:40.131Z,16.6
2018-09-15T18:02:42.358Z,16.4
2018-09-15T18:07:44.573Z,16.200001
2018-09-15T18:12:46.917Z,16
2018-09-15T18:17:49.190Z,15.8
2018-09-15T18:22:51.454Z,15.4
2018-09-15T18:27:53.926Z,15.2
2018-09-15T18:32:56.027Z,15
2018-09-15T18:37:58.377Z,14.6
2018-09-15T18:43:00.653Z,14.6
2018-09-15T18:48:03.052Z,14.5
2018-09-15T18:53:05.306Z,14.4
2018-09-15T18:58:07.600Z,14.2
2018-09-15T19:03:09.872Z,14.1
2018-09-15T19:08:12.201Z,13.9
2018-09-15T19:13:14.480Z,13.7
2018-09-15T19:18:16.797Z,13.6
2018-09-15T19:23:19.001Z,13.5
2018-09-15T19:28:21.311Z,13.5
2018-09-15T19:33:23.513Z,13.3
2018-09-15T19:38:25.811Z,13.2
2018-09-15T19:48:30.635Z,12.9
2018-09-15T19:53:32.770Z,12.8
2018-09-15T19:58:35.084Z,12.7
2018-09-15T20:03:37.459Z,12.6
2018-09-15T20:08:39.762Z,12.5
2018-09-15T20:13:41.978Z,12.4
2018-09-15T20:18:44.255Z,12.3
2018-09-15T20:23:46.660Z,12.2
2018-09-15T20:28:48.771Z,12.2
2018-09-15T20:33:51.146Z,12.1
2018-09-15T20:38:53.426Z,12
2018-09-15T20:43:55.768Z,11.9
2018-09-15T20:48:58.129Z,11.9
2018-09-15T20:54:00.237Z,11.8
2018-09-15T20:59:02.616Z,11.7
2018-09-15T21:04:04.928Z,11.6
2018-09-15T21:09:07.183Z,11.5
2018-09-15T21:14:09.545Z,11.4
2018-09-15T21:19:11.814Z,11.4
2018-09-15T21:24:14.087Z,11.4
2018-09-15T21:29:16.358Z,11.3
2018-09-15T21:34:18.887Z,11.3
2018-09-15T21:39:20.893Z,11.2
2018-09-15T21:44:23.234Z,11.2
2018-09-15T21:49:25.503Z,11.1
2018-09-15T21:54:27.920Z,11
2018-09-15T21:59:30.116Z,10.9
2018-09-15T22:04:32.477Z,10.9
2018-09-15T22:09:34.894Z,10.9
2018-09-15T22:14:36.966Z,10.8
2018-09-15T22:19:39.573Z,10.8
2018-09-15T22:24:41.636Z,10.7
2018-09-15T22:29:43.980Z,10.6
2018-09-15T22:34:46.363Z,10.6
2018-09-15T22:39:48.500Z,10.5
2018-09-15T22:44:50.862Z,10.5
2018-09-15T22:49:53.093Z,10.4
2018-09-15T22:54:55.497Z,10.3
2018-09-15T22:59:57.632Z,10.3
2018-09-15T23:05:00.023Z,10.3
2018-09-15T23:10:02.280Z,10.2
2018-09-15T23:15:04.568Z,10.2
2018-09-15T23:20:06.896Z,10.3
2018-09-15T23:25:09.068Z,10.3
2018-09-15T23:30:13.023Z,10.3
2018-09-15T23:35:14.041Z,10.2
2018-09-15T23:40:16.313Z,10.3
2018-09-15T23:50:20.646Z,10.2
2018-09-15T23:55:23.042Z,10.2
